sensor_id;sensor_type;location;lat;lon;timestamp;P1;durP1;ratioP1;P2;durP2;ratioP2
12451;SDS011;6291;48.924;12.204;2022-08-03T00:01:53;2.37;;;2.10;;
12451;SDS011;6291;48.924;12.204;2022-08-03T00:06:58;2.75;;;2.53;;
12451;SDS011;6291;48.924;12.204;2022-08-03T00:12:01;3.28;;;2.97;;
12451;SDS011;6291;48.924;12.204;2022-08-03T00:17:04;2.85;;;2.63;;
12451;SDS011;6291;48.924;12.204;2022-08-03T00:22:09;3.33;;;2.80;;
12451;SDS011;6291;48.924;12.204;2022-08-03T00:27:13;3.25;;;2.95;;
12451;SDS011;6291;48.924;12.204;2022-08-03T00:32:17;3.22;;;2.92;;
12451;SDS011;6291;48.924;12.204;2022-08-03T00:37:25;3.40;;;3.10;;
12451;SDS011;6291;48.924;12.204;2022-08-03T00:42:45;4.00;;;2.85;;
12451;SDS011;6291;48.924;12.204;2022-08-03T00:47:51;3.50;;;2.80;;
12451;SDS011;6291;48.924;12.204;2022-08-03T00:52:57;4.03;;;3.28;;
12451;SDS011;6291;48.924;12.204;2022-08-03T00:58:01;4.27;;;2.97;;
12451;SDS011;6291;48.924;12.204;2022-08-03T01:03:07;3.10;;;2.73;;
12451;SDS011;6291;48.924;12.204;2022-08-03T01:08:15;3.80;;;3.10;;
12451;SDS011;6291;48.924;12.204;2022-08-03T01:13:26;2.78;;;2.50;;
12451;SDS011;6291;48.924;12.204;2022-08-03T01:18:57;2.33;;;2.13;;
12451;SDS011;6291;48.924;12.204;2022-08-03T01:24:11;2.40;;;2.20;;
12451;SDS011;6291;48.924;12.204;2022-08-03T01:29:44;3.45;;;3.15;;
12451;SDS011;6291;48.924;12.204;2022-08-03T01:35:00;5.00;;;3.20;;
12451;SDS011;6291;48.924;12.204;2022-08-03T01:40:06;2.95;;;2.75;;
12451;SDS011;6291;48.924;12.204;2022-08-03T01:45:14;3.10;;;2.80;;
12451;SDS011;6291;48.924;12.204;2022-08-03T01:50:20;2.63;;;2.42;;
12451;SDS011;6291;48.924;12.204;2022-08-03T01:55:26;3.53;;;3.20;;
12451;SDS011;6291;48.924;12.204;2022-08-03T02:00:34;4.97;;;3.67;;
12451;SDS011;6291;48.924;12.204;2022-08-03T02:05:39;3.73;;;3.00;;
12451;SDS011;6291;48.924;12.204;2022-08-03T02:10:44;3.25;;;2.95;;
12451;SDS011;6291;48.924;12.204;2022-08-03T02:15:50;3.30;;;3.00;;
12451;SDS011;6291;48.924;12.204;2022-08-03T02:20:54;2.88;;;2.67;;
12451;SDS011;6291;48.924;12.204;2022-08-03T02:25:59;3.75;;;3.42;;
12451;SDS011;6291;48.924;12.204;2022-08-03T02:31:06;3.58;;;3.28;;
12451;SDS011;6291;48.924;12.204;2022-08-03T02:36:15;3.97;;;3.57;;
12451;SDS011;6291;48.924;12.204;2022-08-03T02:41:24;3.95;;;3.55;;
12451;SDS011;6291;48.924;12.204;2022-08-03T02:46:36;4.00;;;3.60;;
12451;SDS011;6291;48.924;12.204;2022-08-03T02:51:41;3.83;;;3.53;;
12451;SDS011;6291;48.924;12.204;2022-08-03T02:56:46;4.70;;;4.00;;
12451;SDS011;6291;48.924;12.204;2022-08-03T03:01:51;4.90;;;4.40;;
12451;SDS011;6291;48.924;12.204;2022-08-03T03:06:56;4.93;;;4.40;;
12451;SDS011;6291;48.924;12.204;2022-08-03T03:12:02;7.47;;;4.50;;
12451;SDS011;6291;48.924;12.204;2022-08-03T03:17:09;5.50;;;4.50;;
12451;SDS011;6291;48.924;12.204;2022-08-03T03:22:13;5.13;;;4.63;;
12451;SDS011;6291;48.924;12.204;2022-08-03T03:27:18;5.10;;;4.60;;
12451;SDS011;6291;48.924;12.204;2022-08-03T03:32:24;6.63;;;5.40;;
12451;SDS011;6291;48.924;12.204;2022-08-03T03:37:28;5.88;;;5.28;;
12451;SDS011;6291;48.924;12.204;2022-08-03T03:42:31;5.55;;;5.05;;
12451;SDS011;6291;48.924;12.204;2022-08-03T03:47:36;5.45;;;4.95;;
12451;SDS011;6291;48.924;12.204;2022-08-03T03:52:40;5.77;;;5.27;;
12451;SDS011;6291;48.924;12.204;2022-08-03T03:57:43;7.40;;;5.37;;
12451;SDS011;6291;48.924;12.204;2022-08-03T04:02:48;5.90;;;5.40;;
12451;SDS011;6291;48.924;12.204;2022-08-03T04:07:53;5.90;;;5.30;;
12451;SDS011;6291;48.924;12.204;2022-08-03T04:13:17;5.57;;;4.70;;
12451;SDS011;6291;48.924;12.204;2022-08-03T04:18:24;5.13;;;4.63;;
12451;SDS011;6291;48.924;12.204;2022-08-03T04:23:32;5.28;;;4.78;;
12451;SDS011;6291;48.924;12.204;2022-08-03T04:28:37;6.18;;;4.78;;
12451;SDS011;6291;48.924;12.204;2022-08-03T04:33:44;6.37;;;4.60;;
12451;SDS011;6291;48.924;12.204;2022-08-03T04:38:52;5.85;;;4.82;;
12451;SDS011;6291;48.924;12.204;2022-08-03T04:43:58;4.72;;;4.32;;
12451;SDS011;6291;48.924;12.204;2022-08-03T04:49:05;5.15;;;4.30;;
12451;SDS011;6291;48.924;12.204;2022-08-03T04:54:11;5.17;;;4.10;;
12451;SDS011;6291;48.924;12.204;2022-08-03T04:59:16;4.30;;;3.90;;
12451;SDS011;6291;48.924;12.204;2022-08-03T05:04:21;4.20;;;3.80;;
12451;SDS011;6291;48.924;12.204;2022-08-03T05:09:24;3.88;;;3.50;;
12451;SDS011;6291;48.924;12.204;2022-08-03T05:14:47;4.27;;;3.87;;
12451;SDS011;6291;48.924;12.204;2022-08-03T05:19:52;4.65;;;4.25;;
12451;SDS011;6291;48.924;12.204;2022-08-03T05:24:56;4.35;;;3.10;;
12451;SDS011;6291;48.924;12.204;2022-08-03T05:29:59;2.97;;;2.77;;
12451;SDS011;6291;48.924;12.204;2022-08-03T05:35:25;3.15;;;2.60;;
12451;SDS011;6291;48.924;12.204;2022-08-03T05:40:49;3.45;;;2.38;;
12451;SDS011;6291;48.924;12.204;2022-08-03T05:46:12;2.60;;;2.30;;
12451;SDS011;6291;48.924;12.204;2022-08-03T05:51:17;4.22;;;2.30;;
12451;SDS011;6291;48.924;12.204;2022-08-03T05:56:21;3.50;;;2.70;;
12451;SDS011;6291;48.924;12.204;2022-08-03T06:01:25;3.20;;;2.57;;
12451;SDS011;6291;48.924;12.204;2022-08-03T06:06:30;2.88;;;2.50;;
12451;SDS011;6291;48.924;12.204;2022-08-03T06:11:34;2.50;;;2.30;;
12451;SDS011;6291;48.924;12.204;2022-08-03T06:16:37;2.50;;;2.30;;
12451;SDS011;6291;48.924;12.204;2022-08-03T06:21:42;2.97;;;2.30;;
12451;SDS011;6291;48.924;12.204;2022-08-03T06:26:45;3.30;;;2.20;;
12451;SDS011;6291;48.924;12.204;2022-08-03T06:31:49;2.43;;;2.07;;
12451;SDS011;6291;48.924;12.204;2022-08-03T06:36:54;2.40;;;2.10;;
12451;SDS011;6291;48.924;12.204;2022-08-03T06:42:02;4.13;;;2.60;;
12451;SDS011;6291;48.924;12.204;2022-08-03T06:47:10;2.67;;;1.77;;
12451;SDS011;6291;48.924;12.204;2022-08-03T06:52:14;2.30;;;1.88;;
12451;SDS011;6291;48.924;12.204;2022-08-03T06:57:38;1.73;;;1.63;;
12451;SDS011;6291;48.924;12.204;2022-08-03T07:02:41;1.67;;;1.53;;
12451;SDS011;6291;48.924;12.204;2022-08-03T07:07:46;1.55;;;1.45;;
12451;SDS011;6291;48.924;12.204;2022-08-03T07:12:49;2.13;;;1.55;;
12451;SDS011;6291;48.924;12.204;2022-08-03T07:17:57;2.15;;;1.60;;
12451;SDS011;6291;48.924;12.204;2022-08-03T07:23:02;1.40;;;1.20;;
12451;SDS011;6291;48.924;12.204;2022-08-03T07:28:05;1.98;;;1.40;;
12451;SDS011;6291;48.924;12.204;2022-08-03T07:33:08;2.10;;;1.30;;
12451;SDS011;6291;48.924;12.204;2022-08-03T07:38:13;1.60;;;1.50;;
12451;SDS011;6291;48.924;12.204;2022-08-03T07:43:16;1.60;;;1.50;;
12451;SDS011;6291;48.924;12.204;2022-08-03T07:48:20;1.80;;;1.33;;
12451;SDS011;6291;48.924;12.204;2022-08-03T07:53:24;1.50;;;1.40;;
12451;SDS011;6291;48.924;12.204;2022-08-03T07:58:28;1.60;;;1.50;;
12451;SDS011;6291;48.924;12.204;2022-08-03T08:03:31;1.60;;;1.50;;
12451;SDS011;6291;48.924;12.204;2022-08-03T08:08:55;1.77;;;1.40;;
12451;SDS011;6291;48.924;12.204;2022-08-03T08:14:02;1.58;;;1.38;;
12451;SDS011;6291;48.924;12.204;2022-08-03T08:19:07;2.75;;;1.70;;
12451;SDS011;6291;48.924;12.204;2022-08-03T08:24:14;2.85;;;1.30;;
12451;SDS011;6291;48.924;12.204;2022-08-03T08:29:20;1.40;;;1.30;;
12451;SDS011;6291;48.924;12.204;2022-08-03T08:34:24;3.50;;;1.43;;
12451;SDS011;6291;48.924;12.204;2022-08-03T08:39:29;1.55;;;1.20;;
12451;SDS011;6291;48.924;12.204;2022-08-03T08:44:32;1.27;;;1.17;;
12451;SDS011;6291;48.924;12.204;2022-08-03T08:49:35;1.60;;;1.20;;
12451;SDS011;6291;48.924;12.204;2022-08-03T08:55:04;2.60;;;1.40;;
12451;SDS011;6291;48.924;12.204;2022-08-03T09:00:09;2.10;;;1.30;;
12451;SDS011;6291;48.924;12.204;2022-08-03T09:05:16;3.90;;;1.50;;
12451;SDS011;6291;48.924;12.204;2022-08-03T09:10:42;2.60;;;1.33;;
12451;SDS011;6291;48.924;12.204;2022-08-03T09:15:46;1.23;;;1.10;;
12451;SDS011;6291;48.924;12.204;2022-08-03T09:21:11;1.40;;;1.20;;
12451;SDS011;6291;48.924;12.204;2022-08-03T09:26:33;1.30;;;1.20;;
12451;SDS011;6291;48.924;12.204;2022-08-03T09:31:38;1.35;;;1.00;;
12451;SDS011;6291;48.924;12.204;2022-08-03T09:36:45;1.40;;;1.30;;
12451;SDS011;6291;48.924;12.204;2022-08-03T09:42:04;3.70;;;1.20;;
12451;SDS011;6291;48.924;12.204;2022-08-03T09:47:09;2.80;;;1.17;;
12451;SDS011;6291;48.924;12.204;2022-08-03T09:52:14;1.77;;;0.97;;
12451;SDS011;6291;48.924;12.204;2022-08-03T09:57:40;1.40;;;0.90;;
12451;SDS011;6291;48.924;12.204;2022-08-03T10:02:47;1.55;;;1.10;;
12451;SDS011;6291;48.924;12.204;2022-08-03T10:07:51;1.40;;;1.00;;
12451;SDS011;6291;48.924;12.204;2022-08-03T10:12:56;1.60;;;1.08;;
12451;SDS011;6291;48.924;12.204;2022-08-03T10:17:59;2.00;;;1.10;;
12451;SDS011;6291;48.924;12.204;2022-08-03T10:23:03;2.15;;;1.10;;
12451;SDS011;6291;48.924;12.204;2022-08-03T10:28:11;2.78;;;1.00;;
12451;SDS011;6291;48.924;12.204;2022-08-03T10:33:17;1.08;;;1.00;;
12451;SDS011;6291;48.924;12.204;2022-08-03T10:38:43;2.20;;;1.20;;
12451;SDS011;6291;48.924;12.204;2022-08-03T10:43:55;1.90;;;1.00;;
12451;SDS011;6291;48.924;12.204;2022-08-03T10:49:04;1.10;;;1.00;;
12451;SDS011;6291;48.924;12.204;2022-08-03T11:00:02;1.15;;;0.98;;
12451;SDS011;6291;48.924;12.204;2022-08-03T11:10:28;1.27;;;0.87;;
12451;SDS011;6291;48.924;12.204;2022-08-03T11:15:34;1.63;;;0.90;;
12451;SDS011;6291;48.924;12.204;2022-08-03T11:20:45;1.80;;;0.97;;
12451;SDS011;6291;48.924;12.204;2022-08-03T11:26:06;1.77;;;0.93;;
12451;SDS011;6291;48.924;12.204;2022-08-03T11:42:40;0.80;;;0.80;;
12451;SDS011;6291;48.924;12.204;2022-08-03T11:47:47;1.33;;;0.90;;
12451;SDS011;6291;48.924;12.204;2022-08-03T11:52:55;0.77;;;0.77;;
12451;SDS011;6291;48.924;12.204;2022-08-03T11:57:58;0.90;;;0.80;;
12451;SDS011;6291;48.924;12.204;2022-08-03T12:03:23;0.90;;;0.90;;
12451;SDS011;6291;48.924;12.204;2022-08-03T12:08:30;1.10;;;0.90;;
12451;SDS011;6291;48.924;12.204;2022-08-03T12:13:35;2.13;;;0.90;;
12451;SDS011;6291;48.924;12.204;2022-08-03T12:19:04;1.98;;;0.90;;
12451;SDS011;6291;48.924;12.204;2022-08-03T12:24:08;0.93;;;0.80;;
12451;SDS011;6291;48.924;12.204;2022-08-03T12:29:15;1.20;;;0.90;;
12451;SDS011;6291;48.924;12.204;2022-08-03T12:34:20;2.03;;;0.90;;
12451;SDS011;6291;48.924;12.204;2022-08-03T12:39:24;1.30;;;0.80;;
12451;SDS011;6291;48.924;12.204;2022-08-03T12:44:32;2.47;;;0.90;;
12451;SDS011;6291;48.924;12.204;2022-08-03T12:49:45;0.93;;;0.90;;
12451;SDS011;6291;48.924;12.204;2022-08-03T12:54:55;0.97;;;0.70;;
12451;SDS011;6291;48.924;12.204;2022-08-03T12:59:59;0.90;;;0.80;;
12451;SDS011;6291;48.924;12.204;2022-08-03T13:05:31;2.20;;;0.90;;
12451;SDS011;6291;48.924;12.204;2022-08-03T13:10:43;5.22;;;0.93;;
12451;SDS011;6291;48.924;12.204;2022-08-03T13:15:47;0.80;;;0.70;;
12451;SDS011;6291;48.924;12.204;2022-08-03T13:20:52;1.67;;;1.00;;
12451;SDS011;6291;48.924;12.204;2022-08-03T13:25:55;0.80;;;0.80;;
12451;SDS011;6291;48.924;12.204;2022-08-03T13:30:59;1.60;;;0.90;;
12451;SDS011;6291;48.924;12.204;2022-08-03T13:36:05;1.13;;;0.70;;
12451;SDS011;6291;48.924;12.204;2022-08-03T13:41:09;0.70;;;0.70;;
12451;SDS011;6291;48.924;12.204;2022-08-03T13:46:16;1.00;;;0.70;;
12451;SDS011;6291;48.924;12.204;2022-08-03T13:51:22;1.25;;;0.90;;
12451;SDS011;6291;48.924;12.204;2022-08-03T13:56:25;0.82;;;0.82;;
12451;SDS011;6291;48.924;12.204;2022-08-03T14:01:29;1.40;;;0.80;;
12451;SDS011;6291;48.924;12.204;2022-08-03T14:06:54;1.70;;;1.00;;
12451;SDS011;6291;48.924;12.204;2022-08-03T14:11:57;1.70;;;0.95;;
12451;SDS011;6291;48.924;12.204;2022-08-03T14:17:09;1.23;;;0.85;;
12451;SDS011;6291;48.924;12.204;2022-08-03T14:22:13;0.93;;;0.90;;
12451;SDS011;6291;48.924;12.204;2022-08-03T14:27:17;2.17;;;0.97;;
12451;SDS011;6291;48.924;12.204;2022-08-03T14:32:20;1.40;;;0.90;;
12451;SDS011;6291;48.924;12.204;2022-08-03T14:37:25;0.97;;;0.90;;
12451;SDS011;6291;48.924;12.204;2022-08-03T14:42:29;1.30;;;0.82;;
12451;SDS011;6291;48.924;12.204;2022-08-03T14:47:32;0.88;;;0.82;;
12451;SDS011;6291;48.924;12.204;2022-08-03T14:52:57;1.20;;;1.10;;
12451;SDS011;6291;48.924;12.204;2022-08-03T14:58:05;2.33;;;0.90;;
12451;SDS011;6291;48.924;12.204;2022-08-03T15:03:21;1.00;;;0.70;;
12451;SDS011;6291;48.924;12.204;2022-08-03T15:08:27;0.90;;;0.90;;
12451;SDS011;6291;48.924;12.204;2022-08-03T15:13:31;0.80;;;0.80;;
12451;SDS011;6291;48.924;12.204;2022-08-03T15:18:34;2.03;;;1.00;;
12451;SDS011;6291;48.924;12.204;2022-08-03T15:23:39;2.13;;;0.93;;
12451;SDS011;6291;48.924;12.204;2022-08-03T15:28:42;1.38;;;1.20;;
12451;SDS011;6291;48.924;12.204;2022-08-03T15:33:47;1.10;;;0.97;;
12451;SDS011;6291;48.924;12.204;2022-08-03T15:38:52;1.20;;;1.00;;
12451;SDS011;6291;48.924;12.204;2022-08-03T15:43:55;1.70;;;1.00;;
12451;SDS011;6291;48.924;12.204;2022-08-03T15:48:59;0.90;;;0.90;;
12451;SDS011;6291;48.924;12.204;2022-08-03T15:54:04;1.20;;;0.90;;
12451;SDS011;6291;48.924;12.204;2022-08-03T15:59:09;1.55;;;0.85;;
12451;SDS011;6291;48.924;12.204;2022-08-03T16:04:14;1.10;;;0.93;;
12451;SDS011;6291;48.924;12.204;2022-08-03T16:09:19;3.00;;;0.90;;
12451;SDS011;6291;48.924;12.204;2022-08-03T16:14:42;1.63;;;0.90;;
12451;SDS011;6291;48.924;12.204;2022-08-03T16:19:54;0.90;;;0.90;;
12451;SDS011;6291;48.924;12.204;2022-08-03T16:24:59;0.93;;;0.90;;
12451;SDS011;6291;48.924;12.204;2022-08-03T16:30:03;1.07;;;0.83;;
12451;SDS011;6291;48.924;12.204;2022-08-03T16:35:08;1.03;;;0.90;;
12451;SDS011;6291;48.924;12.204;2022-08-03T16:40:23;0.83;;;0.83;;
12451;SDS011;6291;48.924;12.204;2022-08-03T16:45:27;0.80;;;0.80;;
12451;SDS011;6291;48.924;12.204;2022-08-03T16:50:30;2.10;;;0.90;;
12451;SDS011;6291;48.924;12.204;2022-08-03T16:55:36;1.43;;;0.90;;
12451;SDS011;6291;48.924;12.204;2022-08-03T17:00:54;1.27;;;0.90;;
12451;SDS011;6291;48.924;12.204;2022-08-03T17:06:00;3.20;;;1.10;;
12451;SDS011;6291;48.924;12.204;2022-08-03T17:11:07;2.40;;;0.87;;
12451;SDS011;6291;48.924;12.204;2022-08-03T17:16:11;1.47;;;1.00;;
12451;SDS011;6291;48.924;12.204;2022-08-03T17:21:16;1.10;;;0.80;;
12451;SDS011;6291;48.924;12.204;2022-08-03T17:26:28;0.87;;;0.70;;
12451;SDS011;6291;48.924;12.204;2022-08-03T17:31:34;1.52;;;1.00;;
12451;SDS011;6291;48.924;12.204;2022-08-03T17:36:50;1.23;;;0.90;;
12451;SDS011;6291;48.924;12.204;2022-08-03T17:42:15;1.60;;;0.90;;
12451;SDS011;6291;48.924;12.204;2022-08-03T17:47:33;0.80;;;0.80;;
12451;SDS011;6291;48.924;12.204;2022-08-03T17:52:43;1.17;;;0.90;;
12451;SDS011;6291;48.924;12.204;2022-08-03T17:57:51;1.00;;;1.00;;
12451;SDS011;6291;48.924;12.204;2022-08-03T18:03:05;2.75;;;0.90;;
12451;SDS011;6291;48.924;12.204;2022-08-03T18:08:21;2.67;;;0.90;;
12451;SDS011;6291;48.924;12.204;2022-08-03T18:13:29;3.33;;;1.10;;
12451;SDS011;6291;48.924;12.204;2022-08-03T18:18:42;1.95;;;0.90;;
12451;SDS011;6291;48.924;12.204;2022-08-03T18:23:50;1.80;;;1.10;;
12451;SDS011;6291;48.924;12.204;2022-08-03T18:29:01;2.05;;;1.15;;
12451;SDS011;6291;48.924;12.204;2022-08-03T18:34:09;1.52;;;1.08;;
12451;SDS011;6291;48.924;12.204;2022-08-03T18:39:33;1.60;;;0.97;;
12451;SDS011;6291;48.924;12.204;2022-08-03T18:44:54;1.35;;;0.90;;
12451;SDS011;6291;48.924;12.204;2022-08-03T18:49:59;2.17;;;1.20;;
12451;SDS011;6291;48.924;12.204;2022-08-03T18:55:11;1.47;;;1.37;;
12451;SDS011;6291;48.924;12.204;2022-08-03T19:00:35;1.00;;;0.93;;
12451;SDS011;6291;48.924;12.204;2022-08-03T19:05:56;1.25;;;1.00;;
12451;SDS011;6291;48.924;12.204;2022-08-03T19:11:18;1.52;;;1.00;;
12451;SDS011;6291;48.924;12.204;2022-08-03T19:16:31;1.95;;;1.10;;
12451;SDS011;6291;48.924;12.204;2022-08-03T19:21:40;1.13;;;1.00;;
12451;SDS011;6291;48.924;12.204;2022-08-03T19:26:44;1.42;;;1.20;;
12451;SDS011;6291;48.924;12.204;2022-08-03T19:32:11;1.98;;;1.30;;
12451;SDS011;6291;48.924;12.204;2022-08-03T19:37:16;1.58;;;1.17;;
12451;SDS011;6291;48.924;12.204;2022-08-03T19:42:23;2.72;;;1.10;;
12451;SDS011;6291;48.924;12.204;2022-08-03T19:47:34;2.58;;;1.10;;
12451;SDS011;6291;48.924;12.204;2022-08-03T19:52:42;2.00;;;1.20;;
12451;SDS011;6291;48.924;12.204;2022-08-03T19:57:49;1.33;;;1.10;;
12451;SDS011;6291;48.924;12.204;2022-08-03T20:02:59;1.45;;;1.20;;
12451;SDS011;6291;48.924;12.204;2022-08-03T20:08:03;1.27;;;1.10;;
12451;SDS011;6291;48.924;12.204;2022-08-03T20:13:10;1.65;;;1.08;;
12451;SDS011;6291;48.924;12.204;2022-08-03T20:18:21;0.95;;;0.90;;
12451;SDS011;6291;48.924;12.204;2022-08-03T20:23:26;1.60;;;1.10;;
12451;SDS011;6291;48.924;12.204;2022-08-03T20:28:38;1.30;;;0.93;;
12451;SDS011;6291;48.924;12.204;2022-08-03T20:33:52;1.60;;;1.10;;
12451;SDS011;6291;48.924;12.204;2022-08-03T20:38:56;1.10;;;1.00;;
12451;SDS011;6291;48.924;12.204;2022-08-03T20:44:00;1.42;;;1.00;;
12451;SDS011;6291;48.924;12.204;2022-08-03T20:49:06;1.35;;;0.95;;
12451;SDS011;6291;48.924;12.204;2022-08-03T20:54:10;4.40;;;0.90;;
12451;SDS011;6291;48.924;12.204;2022-08-03T20:59:32;1.25;;;0.90;;
12451;SDS011;6291;48.924;12.204;2022-08-03T21:04:53;2.63;;;1.00;;
12451;SDS011;6291;48.924;12.204;2022-08-03T21:09:58;1.30;;;1.00;;
12451;SDS011;6291;48.924;12.204;2022-08-03T21:15:10;1.83;;;1.30;;
12451;SDS011;6291;48.924;12.204;2022-08-03T21:20:40;2.80;;;1.30;;
12451;SDS011;6291;48.924;12.204;2022-08-03T21:25:45;1.55;;;1.20;;
12451;SDS011;6291;48.924;12.204;2022-08-03T21:30:51;1.63;;;1.40;;
12451;SDS011;6291;48.924;12.204;2022-08-03T21:35:59;1.98;;;1.77;;
12451;SDS011;6291;48.924;12.204;2022-08-03T21:41:04;2.97;;;1.60;;
12451;SDS011;6291;48.924;12.204;2022-08-03T21:46:09;1.60;;;1.50;;
12451;SDS011;6291;48.924;12.204;2022-08-03T21:51:16;2.20;;;1.60;;
12451;SDS011;6291;48.924;12.204;2022-08-03T21:56:25;3.10;;;1.50;;
12451;SDS011;6291;48.924;12.204;2022-08-03T22:01:32;5.40;;;1.73;;
12451;SDS011;6291;48.924;12.204;2022-08-03T22:06:38;2.00;;;1.48;;
12451;SDS011;6291;48.924;12.204;2022-08-03T22:11:44;1.85;;;1.58;;
12451;SDS011;6291;48.924;12.204;2022-08-03T22:16:51;3.30;;;1.63;;
12451;SDS011;6291;48.924;12.204;2022-08-03T22:21:56;3.93;;;1.60;;
12451;SDS011;6291;48.924;12.204;2022-08-03T22:27:01;3.67;;;1.50;;
12451;SDS011;6291;48.924;12.204;2022-08-03T22:32:23;2.47;;;1.83;;
12451;SDS011;6291;48.924;12.204;2022-08-03T22:37:29;4.22;;;1.60;;
12451;SDS011;6291;48.924;12.204;2022-08-03T22:42:33;3.88;;;1.73;;
12451;SDS011;6291;48.924;12.204;2022-08-03T22:47:38;2.47;;;1.80;;
12451;SDS011;6291;48.924;12.204;2022-08-03T22:52:43;4.80;;;1.97;;
12451;SDS011;6291;48.924;12.204;2022-08-03T22:57:46;2.05;;;1.50;;
12451;SDS011;6291;48.924;12.204;2022-08-03T23:02:56;3.10;;;1.73;;
12451;SDS011;6291;48.924;12.204;2022-08-03T23:08:03;2.70;;;1.95;;
12451;SDS011;6291;48.924;12.204;2022-08-03T23:13:10;2.08;;;1.33;;
12451;SDS011;6291;48.924;12.204;2022-08-03T23:18:13;3.43;;;1.40;;
12451;SDS011;6291;48.924;12.204;2022-08-03T23:23:18;2.30;;;1.60;;
12451;SDS011;6291;48.924;12.204;2022-08-03T23:28:23;1.83;;;1.40;;
12451;SDS011;6291;48.924;12.204;2022-08-03T23:33:27;3.15;;;1.70;;
12451;SDS011;6291;48.924;12.204;2022-08-03T23:38:35;3.88;;;1.50;;
12451;SDS011;6291;48.924;12.204;2022-08-03T23:43:38;1.92;;;1.40;;
12451;SDS011;6291;48.924;12.204;2022-08-03T23:48:53;3.50;;;1.30;;
12451;SDS011;6291;48.924;12.204;2022-08-03T23:54:00;3.22;;;1.40;;
12451;SDS011;6291;48.924;12.204;2022-08-03T23:59:13;3.53;;;1.40;;
